Time;durP1;ratioP1;P1;durP2;ratioP2;P2;SDS_P1;SDS_P2;PMS_P1;PMS_P2;Temp;Humidity;BMP_temperature;BMP_pressure;BME280_temperature;BME280_humidity;BME280_pressure;Samples;Min_cycle;Max_cycle;Signal;HPM_P1;HPM_P2
2024/03/29 01:45:09;;;;;;;1.60;1.50;;;;;;;7.10;81.97;96305.13;5103089;28;20237;-77
2024/03/29 01:47:35;;;;;;;2.67;1.63;;;;;;;7.09;81.95;96300.84;5111547;28;20206;-78
2024/03/29 01:50:07;;;;;;;1.93;1.30;;;;;;;7.02;85.21;96312.81;5096608;28;20214;-78
2024/03/29 01:52:34;;;;;;;1.90;1.50;;;;;;;6.87;86.79;96324.59;5092762;28;20223;-77
2024/03/29 01:55:03;;;;;;;2.77;1.60;;;;;;;6.63;88.11;96322.19;5091607;28;20259;-77
2024/03/29 01:57:30;;;;;;;2.97;1.73;;;;;;;6.52;88.11;96332.72;5091979;28;20238;-78
2024/03/29 01:59:56;;;;;;;3.53;1.63;;;;;;;6.62;87.09;96304.78;5111421;28;20271;-77
2024/03/29 02:02:24;;;;;;;1.67;1.40;;;;;;;6.60;87.47;96317.19;5104939;28;20285;-77
2024/03/29 02:04:50;;;;;;;3.30;1.87;;;;;;;6.61;87.76;96316.25;5113623;28;20208;-77
2024/03/29 02:07:19;;;;;;;3.07;1.80;;;;;;;6.69;87.25;96300.69;5113510;28;20617;-77
2024/03/29 02:09:45;;;;;;;2.47;1.67;;;;;;;6.81;84.82;96288.34;5113967;28;20605;-77
2024/03/29 02:12:12;;;;;;;3.00;1.77;;;;;;;6.93;82.71;96267.16;5113293;28;20252;-77
2024/03/29 02:14:39;;;;;;;2.47;1.50;;;;;;;7.08;80.10;96271.09;5102655;28;20209;-77
2024/03/29 02:17:06;;;;;;;2.90;1.47;;;;;;;7.16;77.59;96255.53;5105155;28;20251;-78
2024/03/29 02:19:32;;;;;;;2.50;1.30;;;;;;;7.22;78.10;96263.72;5107381;28;20204;-76
2024/03/29 02:22:00;;;;;;;2.10;1.37;;;;;;;7.31;76.56;96251.59;5094464;28;20230;-77
2024/03/29 02:24:28;;;;;;;2.73;1.80;;;;;;;7.39;76.47;96238.59;5107914;28;20200;-77
2024/03/29 02:26:57;;;;;;;2.37;1.63;;;;;;;7.43;74.86;96225.09;5108124;28;20206;-77
2024/03/29 02:29:24;;;;;;;1.37;1.27;;;;;;;7.47;75.20;96226.47;5109538;28;20195;-78
2024/03/29 02:31:51;;;;;;;1.87;1.33;;;;;;;7.51;76.26;96240.16;5114710;28;20228;-77
2024/03/29 02:34:18;;;;;;;1.90;1.43;;;;;;;7.45;76.65;96248.59;5102045;27;20200;-76
2024/03/29 02:36:45;;;;;;;2.13;1.73;;;;;;;7.43;76.10;96245.28;5093503;28;20235;-77
2024/03/29 02:39:12;;;;;;;2.50;1.20;;;;;;;7.47;76.59;96255.38;5093602;28;20209;-77
2024/03/29 02:41:39;;;;;;;1.37;1.20;;;;;;;7.50;74.76;96228.84;5093416;28;20707;-77
2024/03/29 02:44:06;;;;;;;1.33;1.17;;;;;;;7.57;72.09;96201.06;5094363;28;20206;-77
2024/03/29 02:46:31;;;;;;;1.50;1.10;;;;;;;7.66;71.94;96202.06;5094104;28;20732;-77
2024/03/29 02:48:58;;;;;;;2.07;1.00;;;;;;;7.69;72.38;96202.59;5106175;28;20253;-77
2024/03/29 02:51:23;;;;;;;2.00;1.30;;;;;;;7.72;72.42;96204.13;5113536;28;20255;-77
2024/03/29 02:53:50;;;;;;;1.13;1.03;;;;;;;7.75;72.81;96214.38;5111871;28;20683;-77
2024/03/29 02:56:20;;;;;;;2.93;1.40;;;;;;;7.69;73.71;96233.31;5102188;28;20222;-77
2024/03/29 02:58:48;;;;;;;2.13;1.20;;;;;;;7.61;74.38;96256.81;5112697;28;20283;-77
2024/03/29 03:01:14;;;;;;;2.93;0.97;;;;;;;7.58;74.68;96255.28;5113413;28;20236;-76
2024/03/29 03:03:40;;;;;;;1.10;0.90;;;;;;;7.59;74.64;96250.88;5111351;28;20197;-77
2024/03/29 03:06:06;;;;;;;2.33;1.10;;;;;;;7.66;75.55;96267.78;5105355;28;20209;-77
2024/03/29 03:11:17;;;;;;;1.50;1.20;;;;;;;7.42;80.12;96293.53;5092881;28;20252;-76
2024/03/29 03:13:43;;;;;;;1.57;1.30;;;;;;;7.38;81.42;96289.50;5093579;28;20213;-77
2024/03/29 03:16:11;;;;;;;1.83;1.10;;;;;;;7.31;81.66;96296.25;5097506;28;20220;-76
2024/03/29 03:18:37;;;;;;;1.87;1.10;;;;;;;7.27;82.39;96312.41;5100744;28;20206;-76
2024/03/29 03:21:03;;;;;;;2.27;1.00;;;;;;;7.27;82.52;96307.97;5107299;28;20236;-77
2024/03/29 03:23:30;;;;;;;1.40;1.20;;;;;;;7.32;81.45;96300.53;5104160;28;20216;-77
2024/03/29 03:25:57;;;;;;;1.63;1.17;;;;;;;7.42;78.83;96286.47;5092681;28;20209;-78
2024/03/29 03:28:24;;;;;;;1.97;1.30;;;;;;;7.57;74.29;96252.78;5092975;28;20205;-77
2024/03/29 03:30:50;;;;;;;2.20;1.10;;;;;;;7.59;73.80;96261.38;5092457;28;20220;-76
2024/03/29 03:33:18;;;;;;;1.37;0.90;;;;;;;7.70;73.00;96269.16;5101292;28;20288;-76
2024/03/29 03:35:47;;;;;;;1.23;1.07;;;;;;;7.75;72.95;96286.22;5101328;28;20699;-76
2024/03/29 03:38:15;;;;;;;1.10;1.00;;;;;;;7.80;71.68;96277.91;5113003;28;20209;-76
2024/03/29 03:40:40;;;;;;;1.03;0.93;;;;;;;7.88;71.22;96281.53;5106333;28;20505;-76
2024/03/29 03:43:07;;;;;;;1.40;0.80;;;;;;;7.98;71.62;96292.06;5091572;28;20209;-77
2024/03/29 03:45:36;;;;;;;1.60;1.10;;;;;;;8.07;69.53;96264.94;5098229;28;20613;-76
2024/03/29 03:48:03;;;;;;;1.07;0.97;;;;;;;8.08;68.85;96267.44;5112222;28;20579;-77
2024/03/29 03:50:30;;;;;;;1.67;0.90;;;;;;;8.22;66.32;96237.31;5105784;28;20231;-77
2024/03/29 03:52:57;;;;;;;1.47;1.00;;;;;;;8.24;66.65;96285.38;5091875;28;20300;-77
2024/03/29 03:55:23;;;;;;;1.13;0.83;;;;;;;8.27;68.17;96269.31;5093207;28;20657;-77
2024/03/29 03:57:49;;;;;;;0.87;0.77;;;;;;;8.13;68.69;96267.03;5103092;28;20218;-78
2024/03/29 04:00:16;;;;;;;1.80;0.80;;;;;;;7.93;74.15;96317.94;5092496;28;20210;-78
2024/03/29 04:02:42;;;;;;;1.43;0.60;;;;;;;7.85;74.27;96315.16;5091596;28;20264;-77
2024/03/29 04:05:08;;;;;;;2.00;0.73;;;;;;;8.01;70.99;96241.81;5100155;28;20198;-77
2024/03/29 04:07:36;;;;;;;1.37;0.73;;;;;;;8.26;72.05;96241.34;5112478;28;20695;-77
2024/03/29 04:10:02;;;;;;;1.23;0.80;;;;;;;8.17;75.00;96268.44;5112055;28;20209;-77
2024/03/29 04:12:28;;;;;;;1.57;0.70;;;;;;;8.04;76.25;96267.88;5111614;28;20232;-77
2024/03/29 04:14:54;;;;;;;0.87;0.80;;;;;;;7.96;77.17;96260.66;5108097;28;20201;-77
2024/03/29 04:17:23;;;;;;;0.93;0.77;;;;;;;7.92;77.50;96254.00;5103791;28;20235;-77
2024/03/29 04:19:49;;;;;;;1.83;0.80;;;;;;;7.93;76.50;96234.63;5092633;28;20209;-77
2024/03/29 04:22:15;;;;;;;1.67;0.90;;;;;;;8.03;73.85;96210.97;5095081;28;20222;-77
2024/03/29 04:24:42;;;;;;;0.90;0.77;;;;;;;8.02;75.74;96214.56;5107137;27;20674;-77
2024/03/29 04:27:09;;;;;;;1.53;0.93;;;;;;;8.02;79.02;96240.88;5103493;28;20194;-77
2024/03/29 04:29:34;;;;;;;1.27;0.90;;;;;;;7.90;79.95;96244.59;5110638;27;20198;-77
2024/03/29 04:32:01;;;;;;;1.47;0.90;;;;;;;7.90;80.24;96255.09;5106303;28;20241;-77
2024/03/29 04:34:26;;;;;;;2.40;1.07;;;;;;;8.01;80.07;96258.44;5091352;28;20214;-77
2024/03/29 04:36:53;;;;;;;0.97;0.80;;;;;;;7.95;78.69;96258.97;5097302;28;20227;-77
2024/03/29 04:39:19;;;;;;;0.83;0.70;;;;;;;8.03;76.39;96247.78;5109849;27;20212;-77
2024/03/29 04:41:49;;;;;;;0.67;0.67;;;;;;;7.94;77.63;96288.88;5110969;28;20226;-77
2024/03/29 04:44:24;;;;;;;0.87;0.80;;;;;;;7.94;76.24;96294.16;5112003;28;20663;-77
2024/03/29 04:46:51;;;;;;;0.93;0.70;;;;;;;8.03;77.27;96350.38;5091141;28;20686;-79
2024/03/29 04:49:22;;;;;;;1.70;0.80;;;;;;;8.22;72.92;96272.38;5099165;28;20209;-77
2024/03/29 04:51:49;;;;;;;1.90;0.90;;;;;;;8.35;74.41;96282.63;5090514;28;20309;-77
2024/03/29 04:54:16;;;;;;;0.67;0.63;;;;;;;8.14;75.33;96281.88;5101726;28;20217;-77
2024/03/29 04:56:42;;;;;;;1.53;0.60;;;;;;;8.07;75.67;96283.38;5092106;28;20550;-78
2024/03/29 04:59:23;;;;;;;1.23;0.80;;;;;;;8.09;70.82;96244.63;5105684;28;20204;-77
2024/03/29 05:01:50;;;;;;;2.07;0.77;;;;;;;8.17;70.36;96216.66;5101048;28;20248;-77
2024/03/29 05:04:25;;;;;;;1.17;1.00;;;;;;;8.20;72.46;96236.63;5100525;28;20202;-77
2024/03/29 05:06:51;;;;;;;1.00;0.90;;;;;;;8.23;73.77;96233.72;5099416;28;20229;-77
2024/03/29 05:09:18;;;;;;;2.30;0.90;;;;;;;8.36;72.16;96193.00;5110114;28;20217;-77
2024/03/29 05:11:44;;;;;;;0.60;0.60;;;;;;;8.53;74.73;96208.09;5102953;28;20226;-77
2024/03/29 05:14:13;;;;;;;0.90;0.80;;;;;;;8.58;75.34;96220.84;5105348;28;20621;-77
2024/03/29 05:16:40;;;;;;;0.63;0.63;;;;;;;8.36;74.97;96236.91;5110303;28;20299;-77
2024/03/29 05:19:06;;;;;;;0.73;0.73;;;;;;;8.25;71.47;96211.56;5110859;28;20219;-77
2024/03/29 05:21:33;;;;;;;0.70;0.70;;;;;;;8.24;72.00;96216.94;5110627;28;20221;-79
2024/03/29 05:23:59;;;;;;;0.77;0.77;;;;;;;8.22;72.99;96221.53;5112959;28;20211;-78
2024/03/29 05:26:25;;;;;;;1.50;0.70;;;;;;;8.23;73.61;96231.09;5103073;28;20209;-78
2024/03/29 05:28:53;;;;;;;0.77;0.70;;;;;;;8.24;73.98;96232.75;5090104;28;20221;-78
2024/03/29 05:31:21;;;;;;;1.27;0.80;;;;;;;8.22;72.34;96217.13;5091930;28;20712;-78
2024/03/29 05:33:47;;;;;;;0.67;0.60;;;;;;;8.24;73.00;96232.75;5099537;28;20202;-78
2024/03/29 05:36:13;;;;;;;0.93;0.60;;;;;;;8.27;73.59;96237.75;5112530;28;20212;-77
2024/03/29 05:38:40;;;;;;;1.20;0.80;;;;;;;8.32;73.87;96252.13;5110956;28;20205;-79
2024/03/29 05:41:07;;;;;;;0.70;0.70;;;;;;;8.44;70.69;96208.09;5090064;28;20220;-77
2024/03/29 05:43:33;;;;;;;2.10;0.80;;;;;;;8.48;69.36;96183.16;5099954;28;20263;-77
2024/03/29 05:46:01;;;;;;;1.07;0.87;;;;;;;8.45;71.47;96218.47;5094723;28;20311;-77
2024/03/29 05:48:30;;;;;;;0.60;0.57;;;;;;;8.41;74.13;96255.75;5090028;28;20205;-77
2024/03/29 05:50:56;;;;;;;1.63;0.80;;;;;;;8.42;73.88;96249.50;5091269;28;20587;-77
2024/03/29 05:53:23;;;;;;;1.73;1.00;;;;;;;8.42;74.44;96254.78;5090957;28;20214;-78
2024/03/29 05:55:49;;;;;;;1.47;0.67;;;;;;;8.44;73.86;96244.97;5090467;28;20622;-77
2024/03/29 05:58:17;;;;;;;1.07;0.73;;;;;;;8.53;72.42;96239.69;5090060;28;20233;-77
2024/03/29 06:00:44;;;;;;;0.50;0.50;;;;;;;8.46;73.61;96259.63;5089988;28;20311;-77
2024/03/29 06:03:10;;;;;;;1.00;0.70;;;;;;;8.53;73.38;96260.75;5089168;28;20207;-77
2024/03/29 06:05:40;;;;;;;1.13;0.60;;;;;;;8.53;72.10;96255.50;5090200;28;20206;-79
2024/03/29 06:08:07;;;;;;;1.00;0.90;;;;;;;8.55;72.08;96257.97;5090103;28;20307;-77
2024/03/29 06:10:34;;;;;;;1.17;0.80;;;;;;;8.58;72.00;96263.78;5090158;28;20265;-79
2024/03/29 06:13:07;;;;;;;0.80;0.60;;;;;;;8.62;71.92;96259.09;5089663;28;20206;-77
2024/03/29 06:18:18;;;;;;;1.27;0.90;;;;;;;8.69;72.90;96268.91;5089633;28;20228;-77
2024/03/29 06:20:46;;;;;;;1.03;0.80;;;;;;;8.69;75.06;96276.00;5089651;28;20708;-77
2024/03/29 06:23:12;;;;;;;0.70;0.70;;;;;;;8.72;76.10;96286.22;5099750;28;20274;-78
2024/03/29 06:25:42;;;;;;;0.63;0.63;;;;;;;8.76;76.78;96279.72;5102025;28;20206;-78
2024/03/29 06:28:08;;;;;;;1.13;0.90;;;;;;;8.84;77.09;96290.38;5101708;28;20203;-78
2024/03/29 06:30:35;;;;;;;1.80;0.70;;;;;;;8.98;75.92;96277.63;5104042;28;20229;-78
2024/03/29 06:33:03;;;;;;;1.20;0.73;;;;;;;9.10;74.69;96270.38;5103651;28;20214;-78
2024/03/29 06:35:29;;;;;;;0.90;0.67;;;;;;;9.21;73.07;96263.16;5103966;28;20207;-78
2024/03/29 06:37:57;;;;;;;1.63;1.00;;;;;;;9.33;71.28;96254.09;5103217;28;20231;-78
2024/03/29 06:40:24;;;;;;;0.70;0.70;;;;;;;9.41;70.68;96263.91;5102617;28;20310;-78
2024/03/29 06:42:51;;;;;;;0.90;0.70;;;;;;;9.47;69.62;96243.06;5098910;28;20206;-78
2024/03/29 06:45:17;;;;;;;1.00;0.80;;;;;;;9.49;67.39;96237.66;5099725;28;20674;-78
2024/03/29 06:47:44;;;;;;;0.73;0.60;;;;;;;9.59;67.68;96236.63;5094412;28;20391;-78
2024/03/29 06:50:10;;;;;;;1.37;0.77;;;;;;;9.66;67.88;96226.34;5092673;28;20203;-78
2024/03/29 06:52:37;;;;;;;0.70;0.53;;;;;;;9.71;66.66;96219.66;5091472;28;20502;-78
2024/03/29 06:55:05;;;;;;;3.27;0.60;;;;;;;9.80;64.81;96191.56;5092852;28;20195;-78
2024/03/29 06:57:32;;;;;;;0.87;0.50;;;;;;;9.91;65.15;96194.81;5096284;28;20219;-78
2024/03/29 06:59:59;;;;;;;0.90;0.60;;;;;;;10.01;64.01;96178.91;5096766;28;20207;-78
2024/03/29 07:02:25;;;;;;;0.50;0.50;;;;;;;10.13;63.45;96172.47;5097599;28;20229;-78
2024/03/29 07:04:52;;;;;;;0.50;0.50;;;;;;;10.18;62.46;96170.19;5096780;28;20209;-78
2024/03/29 07:07:18;;;;;;;0.90;0.63;;;;;;;10.30;61.78;96154.00;5097896;28;20205;-79
2024/03/29 07:09:45;;;;;;;0.70;0.60;;;;;;;10.38;62.59;96171.69;5097556;28;20207;-78
2024/03/29 07:12:13;;;;;;;0.50;0.50;;;;;;;10.46;63.03;96169.94;5097473;28;20231;-78
2024/03/29 07:14:39;;;;;;;0.43;0.43;;;;;;;10.52;62.57;96169.34;5097473;28;20206;-78
2024/03/29 07:17:06;;;;;;;1.57;0.70;;;;;;;10.59;63.02;96169.56;5097098;28;20251;-77
2024/03/29 07:19:32;;;;;;;0.70;0.70;;;;;;;10.67;63.56;96182.84;5094515;28;20206;-77
2024/03/29 07:21:59;;;;;;;0.90;0.67;;;;;;;10.57;66.46;96217.25;5094247;28;20222;-79
2024/03/29 07:24:27;;;;;;;1.33;0.60;;;;;;;10.40;68.80;96233.94;5094980;28;20707;-77
2024/03/29 07:26:53;;;;;;;0.70;0.60;;;;;;;10.21;69.44;96249.09;5092346;28;20577;-78
2024/03/29 07:29:21;;;;;;;1.23;0.60;;;;;;;10.11;70.48;96253.59;5095371;28;20207;-78
2024/03/29 07:31:47;;;;;;;0.90;0.80;;;;;;;9.98;69.80;96264.47;5094951;28;20245;-78
2024/03/29 07:34:14;;;;;;;1.27;0.60;;;;;;;9.94;69.71;96262.28;5094439;28;20205;-75
2024/03/29 07:36:40;;;;;;;0.80;0.77;;;;;;;9.85;69.94;96279.00;5102740;28;20209;-76
2024/03/29 07:39:08;;;;;;;0.83;0.67;;;;;;;9.77;69.30;96268.31;5094414;28;20648;-77
2024/03/29 07:41:34;;;;;;;2.30;0.80;;;;;;;9.59;73.54;96321.03;5096414;28;20306;-77
2024/03/29 07:44:03;;;;;;;2.77;1.00;;;;;;;9.56;79.96;96341.56;5117814;28;20221;-78
2024/03/29 07:46:34;;;;;;;1.40;1.10;;;;;;;9.06;87.85;96396.31;5115122;28;20205;-78
2024/03/29 07:49:01;;;;;;;2.23;1.00;;;;;;;8.73;88.97;96382.69;5104808;28;20208;-78
2024/03/29 07:51:27;;;;;;;2.93;1.10;;;;;;;8.56;87.68;96349.16;5105299;28;20606;-78
2024/03/29 07:53:54;;;;;;;1.97;1.07;;;;;;;8.26;91.56;96384.25;5112513;28;20202;-79
2024/03/29 07:56:21;;;;;;;0.70;0.70;;;;;;;8.15;95.43;96401.94;5114909;27;20575;-78
2024/03/29 07:58:50;;;;;;;1.07;0.93;;;;;;;8.04;100.00;96416.03;5115485;28;20233;-76
2024/03/29 08:01:20;;;;;;;2.73;1.10;;;;;;;7.96;100.00;96428.97;5107728;28;20305;-77
2024/03/29 08:03:48;;;;;;;1.10;0.90;;;;;;;7.94;100.00;96430.06;5111436;28;20196;-78
2024/03/29 08:06:16;;;;;;;2.63;1.07;;;;;;;7.87;100.00;96456.09;5110587;28;20197;-77
2024/03/29 08:08:43;;;;;;;1.60;0.90;;;;;;;7.77;100.00;96465.69;5112092;27;20292;-80
2024/03/29 08:11:10;;;;;;;1.07;0.90;;;;;;;7.72;100.00;96482.84;5103736;28;20218;-77
2024/03/29 08:13:36;;;;;;;0.60;0.60;;;;;;;7.63;100.00;96486.22;5114000;28;20209;-80
2024/03/29 08:16:03;;;;;;;1.30;1.07;;;;;;;7.59;100.00;96492.72;5115042;28;20201;-77
2024/03/29 08:18:31;;;;;;;1.10;0.90;;;;;;;7.54;100.00;96489.63;5118892;28;20597;-78
2024/03/29 08:20:59;;;;;;;0.80;0.80;;;;;;;7.54;100.00;96484.38;5115465;28;20233;-78
2024/03/29 08:23:26;;;;;;;1.50;0.90;;;;;;;7.58;100.00;96491.88;5112410;28;20660;-77
2024/03/29 08:25:55;;;;;;;1.53;0.80;;;;;;;7.55;100.00;96492.13;5096187;28;20205;-79
2024/03/29 08:28:22;;;;;;;1.53;1.13;;;;;;;7.59;100.00;96514.56;5105191;28;20202;-80
2024/03/29 08:30:58;;;;;;;1.00;0.90;;;;;;;7.65;100.00;96507.97;5097341;28;20708;-78
2024/03/29 08:33:25;;;;;;;1.10;1.00;;;;;;;7.73;100.00;96516.06;5111022;28;20196;-77
2024/03/29 08:35:52;;;;;;;1.20;0.97;;;;;;;7.80;100.00;96522.47;5106326;28;20689;-77
2024/03/29 08:38:19;;;;;;;1.00;0.83;;;;;;;7.81;100.00;96527.59;5099578;28;20232;-77
2024/03/29 08:40:47;;;;;;;1.67;1.00;;;;;;;7.86;100.00;96530.69;5094074;28;20214;-76
2024/03/29 08:43:14;;;;;;;1.60;1.10;;;;;;;7.89;100.00;96540.13;5093491;28;20198;-77
2024/03/29 08:45:41;;;;;;;1.33;1.00;;;;;;;7.90;100.00;96533.91;5110464;28;20212;-78
2024/03/29 08:48:08;;;;;;;1.20;0.97;;;;;;;7.93;100.00;96544.13;5107503;28;20215;-79
2024/03/29 08:50:35;;;;;;;1.27;1.17;;;;;;;7.98;100.00;96545.44;5102545;28;20237;-79
2024/03/29 08:53:03;;;;;;;2.30;0.97;;;;;;;7.93;100.00;96544.13;5112550;28;20213;-78
2024/03/29 08:55:30;;;;;;;2.00;0.90;;;;;;;7.92;100.00;96548.59;5099233;28;20208;-78
2024/03/29 08:57:58;;;;;;;1.53;0.87;;;;;;;7.96;100.00;96531.56;5106426;28;20236;-77
2024/03/29 09:00:24;;;;;;;1.80;1.27;;;;;;;8.03;100.00;96521.38;5109349;28;20233;-78
2024/03/29 09:02:51;;;;;;;1.53;1.00;;;;;;;8.00;100.00;96521.63;5119459;27;20219;-78
2024/03/29 09:05:17;;;;;;;0.90;0.90;;;;;;;7.97;100.00;96519.25;5120157;28;20239;-78
2024/03/29 09:07:45;;;;;;;1.57;0.90;;;;;;;8.09;100.00;96526.94;5108956;28;20268;-77
2024/03/29 09:10:11;;;;;;;1.60;1.20;;;;;;;8.19;100.00;96532.25;5115276;27;20695;-78
2024/03/29 09:12:39;;;;;;;1.73;1.13;;;;;;;8.31;100.00;96529.44;5112691;27;20263;-77
2024/03/29 09:15:08;;;;;;;2.17;1.13;;;;;;;8.40;100.00;96531.28;5115419;28;20201;-78
2024/03/29 09:17:35;;;;;;;2.73;1.33;;;;;;;8.47;100.00;96518.44;5113673;28;20202;-77
2024/03/29 09:20:02;;;;;;;1.60;1.30;;;;;;;8.52;100.00;96518.88;5109017;27;20227;-78
2024/03/29 09:22:28;;;;;;;3.07;1.47;;;;;;;8.55;100.00;96505.44;5098660;28;20298;-78
2024/03/29 09:24:55;;;;;;;1.50;1.30;;;;;;;8.62;100.00;96502.16;5103725;28;20536;-77
2024/03/29 09:27:21;;;;;;;3.07;1.77;;;;;;;8.64;100.00;96499.38;5116785;28;20209;-78
2024/03/29 09:29:50;;;;;;;1.33;1.23;;;;;;;8.56;100.00;96491.34;5107425;28;20200;-77
2024/03/29 09:32:17;;;;;;;2.80;1.40;;;;;;;8.58;100.00;96484.13;5106468;28;20227;-77
2024/03/29 09:34:44;;;;;;;3.07;1.70;;;;;;;8.60;100.00;96497.97;5094351;28;20217;-79
2024/03/29 09:37:10;;;;;;;2.30;1.90;;;;;;;8.55;100.00;96497.53;5103971;28;20202;-77
2024/03/29 09:39:39;;;;;;;3.77;1.70;;;;;;;8.54;100.00;96509.03;5109513;28;20496;-78
2024/03/29 09:42:33;;;;;;;;;;;;;;;;;;;;;
2024/03/29 09:45:39;;;;;;;;;;;;;;;;;;;;;
2024/03/29 09:48:15;;;;;;;2.37;1.70;;;;;;;8.69;100.00;96491.94;4979309;28;20297;-77
2024/03/29 09:50:42;;;;;;;2.00;1.80;;;;;;;8.70;100.00;96483.88;5063416;28;20236;-79
2024/03/29 09:53:09;;;;;;;4.23;2.13;;;;;;;8.69;100.00;96476.13;5057090;28;20204;-78
2024/03/29 09:55:36;;;;;;;2.30;2.00;;;;;;;8.67;100.00;96456.97;5101903;28;20265;-78
2024/03/29 09:58:03;;;;;;;3.53;1.90;;;;;;;8.75;100.00;96455.34;5087829;28;20218;-84
2024/03/29 10:00:30;;;;;;;3.10;2.10;;;;;;;8.72;100.00;96470.56;5110136;28;20226;-83
2024/03/29 10:02:57;;;;;;;3.57;2.00;;;;;;;8.65;100.00;96465.03;5087757;28;20537;-83
2024/03/29 10:05:26;;;;;;;4.30;2.80;;;;;;;8.54;100.00;96477.44;5083489;28;20256;-84
2024/03/29 10:07:54;;;;;;;3.00;2.50;;;;;;;8.59;100.00;96468.19;5091214;28;20195;-83
2024/03/29 10:10:20;;;;;;;2.57;2.10;;;;;;;8.51;100.00;96464.56;5088756;28;20558;-81
2024/03/29 10:12:47;;;;;;;2.47;2.23;;;;;;;8.73;100.00;96482.78;5092961;28;20199;-81
2024/03/29 10:15:15;;;;;;;2.73;2.30;;;;;;;8.81;100.00;96486.41;5088299;28;20653;-78
2024/03/29 10:17:48;;;;;;;3.23;2.30;;;;;;;8.81;100.00;96490.84;5096851;28;20207;-78
2024/03/29 10:20:17;;;;;;;3.40;2.17;;;;;;;8.83;100.00;96486.28;5097034;28;20650;-78
2024/03/29 10:22:45;;;;;;;2.23;1.83;;;;;;;8.88;100.00;96482.25;5096645;28;20224;-79
2024/03/29 10:25:12;;;;;;;3.93;2.40;;;;;;;9.04;100.00;96471.19;5094989;28;20213;-78
2024/03/29 10:27:40;;;;;;;3.27;2.47;;;;;;;9.39;100.00;96458.31;5081920;28;20214;-79
2024/03/29 10:30:08;;;;;;;2.63;2.43;;;;;;;9.51;100.00;96452.75;5091208;28;20282;-80
2024/03/29 10:32:35;;;;;;;3.07;2.50;;;;;;;9.58;100.00;96453.03;5096664;28;20195;-80
2024/03/29 10:35:02;;;;;;;3.50;2.30;;;;;;;9.67;100.00;96450.38;5098384;28;20210;-79
2024/03/29 10:37:32;;;;;;;2.20;2.00;;;;;;;9.73;100.00;96451.63;5103219;28;20221;-76
2024/03/29 10:40:01;;;;;;;2.70;1.97;;;;;;;9.70;100.00;96449.25;5109455;28;20242;-82
2024/03/29 10:42:28;;;;;;;2.67;2.03;;;;;;;9.74;100.00;96450.66;5096504;28;20286;-81
2024/03/29 10:44:58;;;;;;;2.13;1.87;;;;;;;9.75;100.00;96452.31;5098926;28;20199;-80
2024/03/29 10:47:26;;;;;;;1.70;1.60;;;;;;;9.84;100.00;96454.94;5093185;28;20205;-80
2024/03/29 10:49:54;;;;;;;2.87;2.10;;;;;;;9.88;100.00;96466.03;5098208;28;20203;-81
2024/03/29 10:52:22;;;;;;;2.87;2.03;;;;;;;10.00;100.00;96462.25;5093169;28;20226;-83
2024/03/29 10:54:49;;;;;;;2.73;2.00;;;;;;;10.10;100.00;96452.53;5107831;28;20278;-83
2024/03/29 10:57:26;;;;;;;2.10;1.90;;;;;;;10.18;100.00;96453.50;5087167;28;20297;-77
2024/03/29 11:00:04;;;;;;;2.57;2.07;;;;;;;10.30;100.00;96462.06;5074174;28;20227;-78
2024/03/29 11:02:40;;;;;;;2.10;1.90;;;;;;;10.45;100.00;96461.44;5074536;28;20214;-78
2024/03/29 11:05:10;;;;;;;2.97;1.80;;;;;;;10.62;100.00;96459.81;5079198;28;20199;-78
2024/03/29 11:07:42;;;;;;;2.33;1.83;;;;;;;10.67;100.00;96462.84;5077439;28;20189;-81
2024/03/29 11:10:14;;;;;;;2.63;2.20;;;;;;;10.80;100.00;96458.06;5079876;28;20213;-78
2024/03/29 11:12:50;;;;;;;3.90;2.70;;;;;;;11.00;100.00;96449.06;5079063;28;20215;-79
2024/03/29 11:15:23;;;;;;;3.83;2.67;;;;;;;11.10;100.00;96447.16;5080111;28;20218;-79
2024/03/29 11:17:51;;;;;;;3.13;2.40;;;;;;;11.14;100.00;96445.88;5078827;28;20211;-78
2024/03/29 11:20:24;;;;;;;3.83;2.33;;;;;;;11.31;100.00;96442.41;5078799;28;20724;-78
2024/03/29 11:22:51;;;;;;;3.60;2.43;;;;;;;11.44;100.00;96448.16;5078444;28;20668;-76
2024/03/29 11:25:17;;;;;;;3.53;2.40;;;;;;;11.67;100.00;96444.09;5079660;28;20221;-78
2024/03/29 11:27:47;;;;;;;2.30;1.80;;;;;;;11.81;100.00;96447.00;5075978;28;20207;-77
2024/03/29 11:30:18;;;;;;;2.53;2.10;;;;;;;11.98;100.00;96440.03;5072323;28;20199;-77
2024/03/29 11:32:44;;;;;;;2.10;1.80;;;;;;;12.03;100.00;96435.91;5072989;28;20246;-77
2024/03/29 11:35:16;;;;;;;2.67;2.00;;;;;;;12.20;100.00;96442.13;5073768;28;20558;-77
2024/03/29 11:37:42;;;;;;;2.17;1.97;;;;;;;12.29;100.00;96433.25;5073880;28;20291;-77
2024/03/29 11:40:12;;;;;;;1.87;1.70;;;;;;;12.35;100.00;96427.31;5074536;28;20231;-77
2024/03/29 11:42:44;;;;;;;2.03;1.67;;;;;;;12.38;100.00;96408.44;5076792;28;20662;-77
2024/03/29 11:45:12;;;;;;;2.93;2.03;;;;;;;12.38;100.00;96403.16;5074677;28;20662;-77
2024/03/29 11:47:41;;;;;;;2.63;1.90;;;;;;;12.38;100.00;96413.75;5073428;28;20218;-77
2024/03/29 11:50:09;;;;;;;1.97;1.70;;;;;;;12.36;100.00;96415.75;5075793;28;20207;-78
2024/03/29 11:52:36;;;;;;;2.63;1.97;;;;;;;12.41;100.00;96424.84;5078583;28;20205;-78
2024/03/29 11:55:03;;;;;;;2.30;1.80;;;;;;;12.53;100.00;96431.53;5077358;28;20587;-78
2024/03/29 11:57:30;;;;;;;2.00;1.80;;;;;;;12.55;100.00;96440.19;5079256;28;20215;-78
2024/03/29 11:59:57;;;;;;;2.50;2.10;;;;;;;12.49;100.00;96454.06;5079139;28;20607;-79
2024/03/29 12:02:25;;;;;;;1.90;1.80;;;;;;;12.43;100.00;96464.44;5075832;28;20259;-76
2024/03/29 12:04:51;;;;;;;2.00;1.80;;;;;;;12.40;100.00;96478.03;5072923;28;20221;-77
2024/03/29 12:07:18;;;;;;;2.20;2.00;;;;;;;12.39;100.00;96469.22;5073105;28;20213;-77
2024/03/29 12:09:45;;;;;;;3.37;2.20;;;;;;;12.39;100.00;96463.09;5073060;28;20209;-76
2024/03/29 12:12:12;;;;;;;1.80;1.70;;;;;;;12.40;100.00;96470.06;5072895;28;20235;-77
2024/03/29 12:14:38;;;;;;;2.77;2.00;;;;;;;12.43;100.00;96469.75;5072850;28;20210;-77
2024/03/29 12:17:10;;;;;;;2.00;1.70;;;;;;;12.48;100.00;96467.47;5073632;28;20285;-77
2024/03/29 12:19:41;;;;;;;2.80;2.33;;;;;;;12.54;100.00;96461.53;5072973;28;20238;-77
2024/03/29 12:22:08;;;;;;;2.40;1.93;;;;;;;12.72;100.00;96451.69;5072254;28;20238;-75
2024/03/29 12:24:35;;;;;;;2.40;2.17;;;;;;;12.87;100.00;96455.38;5072552;28;20213;-75
2024/03/29 12:27:02;;;;;;;2.20;2.00;;;;;;;13.08;100.00;96455.81;5072440;28;20216;-75
2024/03/29 12:29:29;;;;;;;2.73;1.70;;;;;;;13.28;100.00;96459.81;5072465;28;20205;-75
2024/03/29 12:32:00;;;;;;;2.30;1.63;;;;;;;13.47;100.00;96456.88;5072219;28;20224;-75
2024/03/29 12:34:27;;;;;;;3.30;1.57;;;;;;;13.60;100.00;96446.59;5072520;28;20274;-76
2024/03/29 12:36:55;;;;;;;1.80;1.30;;;;;;;13.87;100.00;96423.19;5072285;28;20669;-75
2024/03/29 12:39:24;;;;;;;1.80;1.17;;;;;;;13.94;100.00;96429.50;5072166;28;20243;-76
2024/03/29 12:41:51;;;;;;;1.60;1.30;;;;;;;13.98;100.00;96430.81;5071809;28;20375;-75
2024/03/29 12:44:18;;;;;;;1.17;1.00;;;;;;;14.10;100.00;96423.31;5072398;28;20209;-76
2024/03/29 12:46:45;;;;;;;2.47;1.10;;;;;;;14.21;100.00;96428.31;5072220;28;20206;-76
2024/03/29 12:49:12;;;;;;;1.07;0.97;;;;;;;14.28;100.00;96421.31;5072146;28;20205;-74
2024/03/29 12:51:41;;;;;;;2.80;1.30;;;;;;;14.35;100.00;96414.34;5071736;28;20225;-75
2024/03/29 12:54:10;;;;;;;1.07;0.93;;;;;;;14.53;100.00;96421.09;5072274;28;20210;-78
2024/03/29 12:56:38;;;;;;;1.93;1.20;;;;;;;14.72;100.00;96414.56;5072556;28;20222;-76
2024/03/29 12:59:05;;;;;;;2.07;1.20;;;;;;;14.82;100.00;96423.13;5071982;28;20771;-76
2024/03/29 13:01:32;;;;;;;1.10;1.00;;;;;;;14.79;100.00;96434.13;5071824;28;20230;-79
2024/03/29 13:03:58;;;;;;;1.27;1.10;;;;;;;14.68;93.65;96402.59;5072578;28;20209;-78
2024/03/29 13:06:25;;;;;;;1.17;1.00;;;;;;;14.78;95.43;96406.69;5071892;28;20218;-78
2024/03/29 13:08:53;;;;;;;1.20;1.10;;;;;;;14.89;97.44;96421.44;5071380;28;20217;-75
2024/03/29 13:11:21;;;;;;;1.00;0.90;;;;;;;14.94;93.37;96413.78;5071668;28;20234;-76
2024/03/29 13:13:47;;;;;;;1.00;0.90;;;;;;;15.17;94.93;96404.00;5071625;28;20630;-75
2024/03/29 13:16:14;;;;;;;1.87;1.10;;;;;;;15.30;95.06;96398.91;5070609;28;20213;-77
2024/03/29 13:18:41;;;;;;;1.37;1.10;;;;;;;15.51;94.45;96407.13;5071662;28;20218;-76
2024/03/29 13:21:08;;;;;;;1.13;0.97;;;;;;;15.48;86.50;96359.56;5071385;28;20227;-75
2024/03/29 13:23:34;;;;;;;0.90;0.90;;;;;;;15.74;92.60;96397.28;5071897;28;20215;-76
2024/03/29 13:26:01;;;;;;;0.90;0.90;;;;;;;15.88;92.55;96393.84;5071904;28;20211;-76
2024/03/29 13:28:29;;;;;;;1.57;1.13;;;;;;;15.85;94.04;96394.19;5071863;28;20206;-77
2024/03/29 13:30:56;;;;;;;1.10;1.00;;;;;;;15.77;97.52;96391.59;5069881;28;20223;-76